sensor_id;sensor_type;location;lat;lon;timestamp;P1;durP1;ratioP1;P2;durP2;ratioP2
66087;SDS011;52872;52.994;6.940;2024-03-22T00:02:06;20.05;;;15.07;;
66087;SDS011;52872;52.994;6.940;2024-03-22T00:04:35;23.88;;;20.13;;
66087;SDS011;52872;52.994;6.940;2024-03-22T00:07:02;23.48;;;14.60;;
66087;SDS011;52872;52.994;6.940;2024-03-22T00:09:28;30.08;;;22.70;;
66087;SDS011;52872;52.994;6.940;2024-03-22T00:11:54;26.83;;;17.27;;
66087;SDS011;52872;52.994;6.940;2024-03-22T00:14:20;22.90;;;13.55;;
66087;SDS011;52872;52.994;6.940;2024-03-22T00:16:47;26.23;;;17.08;;
66087;SDS011;52872;52.994;6.940;2024-03-22T00:19:13;18.08;;;12.70;;
66087;SDS011;52872;52.994;6.940;2024-03-22T00:21:39;28.33;;;15.15;;
66087;SDS011;52872;52.994;6.940;2024-03-22T00:24:05;25.73;;;16.95;;
66087;SDS011;52872;52.994;6.940;2024-03-22T00:26:31;26.35;;;15.50;;
66087;SDS011;52872;52.994;6.940;2024-03-22T00:28:58;29.45;;;18.30;;
66087;SDS011;52872;52.994;6.940;2024-03-22T00:31:24;33.88;;;17.30;;
66087;SDS011;52872;52.994;6.940;2024-03-22T00:33:50;30.73;;;16.52;;
66087;SDS011;52872;52.994;6.940;2024-03-22T00:36:16;25.85;;;14.57;;
66087;SDS011;52872;52.994;6.940;2024-03-22T00:38:42;33.05;;;20.92;;
66087;SDS011;52872;52.994;6.940;2024-03-22T00:41:08;27.92;;;19.77;;
66087;SDS011;52872;52.994;6.940;2024-03-22T00:43:34;34.80;;;19.98;;
66087;SDS011;52872;52.994;6.940;2024-03-22T00:46:01;27.85;;;16.40;;
66087;SDS011;52872;52.994;6.940;2024-03-22T00:48:28;33.30;;;24.67;;
66087;SDS011;52872;52.994;6.940;2024-03-22T00:50:54;32.40;;;22.65;;
66087;SDS011;52872;52.994;6.940;2024-03-22T00:53:20;30.88;;;18.00;;
66087;SDS011;52872;52.994;6.940;2024-03-22T00:55:46;29.25;;;16.50;;
66087;SDS011;52872;52.994;6.940;2024-03-22T00:58:19;29.50;;;16.33;;
66087;SDS011;52872;52.994;6.940;2024-03-22T01:00:45;32.75;;;23.80;;
66087;SDS011;52872;52.994;6.940;2024-03-22T01:03:12;30.30;;;17.42;;
66087;SDS011;52872;52.994;6.940;2024-03-22T01:05:38;32.92;;;23.98;;
66087;SDS011;52872;52.994;6.940;2024-03-22T01:08:05;32.25;;;19.45;;
66087;SDS011;52872;52.994;6.940;2024-03-22T01:10:32;31.70;;;20.17;;
66087;SDS011;52872;52.994;6.940;2024-03-22T01:12:59;37.78;;;27.38;;
66087;SDS011;52872;52.994;6.940;2024-03-22T01:15:26;37.08;;;24.10;;
66087;SDS011;52872;52.994;6.940;2024-03-22T01:17:52;33.42;;;19.38;;
66087;SDS011;52872;52.994;6.940;2024-03-22T01:20:18;25.38;;;16.05;;
66087;SDS011;52872;52.994;6.940;2024-03-22T01:22:44;33.95;;;23.88;;
66087;SDS011;52872;52.994;6.940;2024-03-22T01:25:10;36.95;;;23.70;;
66087;SDS011;52872;52.994;6.940;2024-03-22T01:27:37;44.97;;;32.97;;
66087;SDS011;52872;52.994;6.940;2024-03-22T01:30:03;38.72;;;23.75;;
66087;SDS011;52872;52.994;6.940;2024-03-22T01:32:29;39.70;;;23.52;;
66087;SDS011;52872;52.994;6.940;2024-03-22T01:34:55;46.70;;;26.67;;
66087;SDS011;52872;52.994;6.940;2024-03-22T01:37:22;51.75;;;36.67;;
66087;SDS011;52872;52.994;6.940;2024-03-22T01:39:48;31.85;;;20.25;;
66087;SDS011;52872;52.994;6.940;2024-03-22T01:42:14;31.65;;;20.40;;
66087;SDS011;52872;52.994;6.940;2024-03-22T01:44:40;35.30;;;19.85;;
66087;SDS011;52872;52.994;6.940;2024-03-22T01:47:06;36.40;;;20.92;;
66087;SDS011;52872;52.994;6.940;2024-03-22T01:49:32;35.88;;;21.40;;
66087;SDS011;52872;52.994;6.940;2024-03-22T01:51:59;36.70;;;23.75;;
66087;SDS011;52872;52.994;6.940;2024-03-22T01:54:25;34.58;;;18.27;;
66087;SDS011;52872;52.994;6.940;2024-03-22T01:56:51;39.83;;;26.02;;
66087;SDS011;52872;52.994;6.940;2024-03-22T01:59:17;42.67;;;25.45;;
66087;SDS011;52872;52.994;6.940;2024-03-22T02:01:44;40.40;;;23.75;;
66087;SDS011;52872;52.994;6.940;2024-03-22T02:04:10;35.65;;;22.58;;
66087;SDS011;52872;52.994;6.940;2024-03-22T02:06:36;39.13;;;22.27;;
66087;SDS011;52872;52.994;6.940;2024-03-22T02:09:02;36.88;;;24.00;;
66087;SDS011;52872;52.994;6.940;2024-03-22T02:11:30;36.78;;;22.75;;
66087;SDS011;52872;52.994;6.940;2024-03-22T02:13:56;40.03;;;23.80;;
66087;SDS011;52872;52.994;6.940;2024-03-22T02:16:22;53.17;;;36.10;;
66087;SDS011;52872;52.994;6.940;2024-03-22T02:18:48;46.15;;;26.15;;
66087;SDS011;52872;52.994;6.940;2024-03-22T02:21:14;34.63;;;20.35;;
66087;SDS011;52872;52.994;6.940;2024-03-22T02:23:40;31.52;;;16.98;;
66087;SDS011;52872;52.994;6.940;2024-03-22T02:26:07;38.47;;;25.17;;
66087;SDS011;52872;52.994;6.940;2024-03-22T02:28:34;35.13;;;21.85;;
66087;SDS011;52872;52.994;6.940;2024-03-22T02:31:01;47.42;;;31.38;;
66087;SDS011;52872;52.994;6.940;2024-03-22T02:33:28;41.90;;;25.95;;
66087;SDS011;52872;52.994;6.940;2024-03-22T02:35:55;47.13;;;31.00;;
66087;SDS011;52872;52.994;6.940;2024-03-22T02:38:21;47.20;;;34.53;;
66087;SDS011;52872;52.994;6.940;2024-03-22T02:40:48;38.03;;;22.02;;
66087;SDS011;52872;52.994;6.940;2024-03-22T02:43:15;40.45;;;22.65;;
66087;SDS011;52872;52.994;6.940;2024-03-22T02:45:43;34.35;;;20.15;;
66087;SDS011;52872;52.994;6.940;2024-03-22T02:48:09;56.00;;;35.97;;
66087;SDS011;52872;52.994;6.940;2024-03-22T02:50:37;37.13;;;19.20;;
66087;SDS011;52872;52.994;6.940;2024-03-22T02:53:04;52.30;;;36.60;;
66087;SDS011;52872;52.994;6.940;2024-03-22T02:55:35;38.88;;;23.15;;
66087;SDS011;52872;52.994;6.940;2024-03-22T02:58:02;39.92;;;22.75;;
66087;SDS011;52872;52.994;6.940;2024-03-22T03:00:28;42.00;;;28.33;;
66087;SDS011;52872;52.994;6.940;2024-03-22T03:02:54;32.22;;;18.50;;
66087;SDS011;52872;52.994;6.940;2024-03-22T03:05:20;47.05;;;27.23;;
66087;SDS011;52872;52.994;6.940;2024-03-22T03:07:48;44.33;;;27.67;;
66087;SDS011;52872;52.994;6.940;2024-03-22T03:10:16;49.30;;;29.63;;
66087;SDS011;52872;52.994;6.940;2024-03-22T03:12:42;43.53;;;32.38;;
66087;SDS011;52872;52.994;6.940;2024-03-22T03:15:08;38.45;;;20.73;;
66087;SDS011;52872;52.994;6.940;2024-03-22T03:17:34;44.55;;;31.17;;
66087;SDS011;52872;52.994;6.940;2024-03-22T03:20:00;49.83;;;36.63;;
66087;SDS011;52872;52.994;6.940;2024-03-22T03:22:26;42.65;;;21.77;;
66087;SDS011;52872;52.994;6.940;2024-03-22T03:24:52;40.28;;;26.98;;
66087;SDS011;52872;52.994;6.940;2024-03-22T03:27:18;41.35;;;23.27;;
66087;SDS011;52872;52.994;6.940;2024-03-22T03:29:44;40.47;;;23.48;;
66087;SDS011;52872;52.994;6.940;2024-03-22T03:32:10;39.17;;;24.60;;
66087;SDS011;52872;52.994;6.940;2024-03-22T03:34:36;47.58;;;26.45;;
66087;SDS011;52872;52.994;6.940;2024-03-22T03:37:02;45.47;;;24.00;;
66087;SDS011;52872;52.994;6.940;2024-03-22T03:39:28;39.88;;;22.98;;
66087;SDS011;52872;52.994;6.940;2024-03-22T03:41:57;38.70;;;23.45;;
66087;SDS011;52872;52.994;6.940;2024-03-22T03:44:23;46.72;;;30.60;;
66087;SDS011;52872;52.994;6.940;2024-03-22T03:46:49;42.33;;;26.55;;
66087;SDS011;52872;52.994;6.940;2024-03-22T03:49:15;37.28;;;26.35;;
66087;SDS011;52872;52.994;6.940;2024-03-22T03:51:41;48.50;;;29.88;;
66087;SDS011;52872;52.994;6.940;2024-03-22T03:54:06;49.45;;;27.40;;
66087;SDS011;52872;52.994;6.940;2024-03-22T03:56:32;47.50;;;31.92;;
66087;SDS011;52872;52.994;6.940;2024-03-22T03:58:58;35.78;;;24.80;;
66087;SDS011;52872;52.994;6.940;2024-03-22T04:01:24;45.88;;;27.70;;
66087;SDS011;52872;52.994;6.940;2024-03-22T04:03:50;34.03;;;18.45;;
66087;SDS011;52872;52.994;6.940;2024-03-22T04:06:16;41.42;;;23.60;;
66087;SDS011;52872;52.994;6.940;2024-03-22T04:08:42;45.08;;;24.70;;
66087;SDS011;52872;52.994;6.940;2024-03-22T04:11:09;44.92;;;24.25;;
66087;SDS011;52872;52.994;6.940;2024-03-22T04:13:37;35.85;;;20.83;;
66087;SDS011;52872;52.994;6.940;2024-03-22T04:16:03;41.35;;;27.17;;
66087;SDS011;52872;52.994;6.940;2024-03-22T04:18:30;42.17;;;24.08;;
66087;SDS011;52872;52.994;6.940;2024-03-22T04:20:56;51.15;;;26.70;;
66087;SDS011;52872;52.994;6.940;2024-03-22T04:23:24;45.00;;;32.25;;
66087;SDS011;52872;52.994;6.940;2024-03-22T04:25:58;43.47;;;22.88;;
66087;SDS011;52872;52.994;6.940;2024-03-22T04:28:28;40.00;;;23.52;;
66087;SDS011;52872;52.994;6.940;2024-03-22T04:31:04;44.05;;;25.63;;
66087;SDS011;52872;52.994;6.940;2024-03-22T04:33:32;46.83;;;28.40;;
66087;SDS011;52872;52.994;6.940;2024-03-22T04:35:59;38.20;;;25.65;;
66087;SDS011;52872;52.994;6.940;2024-03-22T04:38:26;48.75;;;30.05;;
66087;SDS011;52872;52.994;6.940;2024-03-22T04:40:53;40.67;;;22.23;;
66087;SDS011;52872;52.994;6.940;2024-03-22T04:43:20;45.13;;;24.38;;
66087;SDS011;52872;52.994;6.940;2024-03-22T04:45:46;47.95;;;28.48;;
66087;SDS011;52872;52.994;6.940;2024-03-22T04:48:14;36.90;;;24.73;;
66087;SDS011;52872;52.994;6.940;2024-03-22T04:50:41;51.78;;;34.60;;
66087;SDS011;52872;52.994;6.940;2024-03-22T04:53:07;37.25;;;23.60;;
66087;SDS011;52872;52.994;6.940;2024-03-22T04:55:33;39.92;;;22.83;;
66087;SDS011;52872;52.994;6.940;2024-03-22T04:58:00;38.85;;;25.15;;
66087;SDS011;52872;52.994;6.940;2024-03-22T05:00:26;46.58;;;31.27;;
66087;SDS011;52872;52.994;6.940;2024-03-22T05:02:55;45.08;;;29.92;;
66087;SDS011;52872;52.994;6.940;2024-03-22T05:05:21;53.50;;;35.33;;
66087;SDS011;52872;52.994;6.940;2024-03-22T05:07:47;43.72;;;24.20;;
66087;SDS011;52872;52.994;6.940;2024-03-22T05:10:13;40.63;;;25.45;;
66087;SDS011;52872;52.994;6.940;2024-03-22T05:12:41;49.75;;;35.35;;
66087;SDS011;52872;52.994;6.940;2024-03-22T05:15:07;38.78;;;25.60;;
66087;SDS011;52872;52.994;6.940;2024-03-22T05:17:33;42.47;;;25.42;;
66087;SDS011;52872;52.994;6.940;2024-03-22T05:19:59;40.95;;;23.65;;
66087;SDS011;52872;52.994;6.940;2024-03-22T05:22:27;42.47;;;25.88;;
66087;SDS011;52872;52.994;6.940;2024-03-22T05:24:53;39.97;;;22.45;;
66087;SDS011;52872;52.994;6.940;2024-03-22T05:27:19;40.42;;;21.88;;
66087;SDS011;52872;52.994;6.940;2024-03-22T05:29:46;35.17;;;20.15;;
66087;SDS011;52872;52.994;6.940;2024-03-22T05:32:12;51.80;;;34.63;;
66087;SDS011;52872;52.994;6.940;2024-03-22T05:34:38;45.47;;;28.25;;
66087;SDS011;52872;52.994;6.940;2024-03-22T05:37:04;44.10;;;24.42;;
66087;SDS011;52872;52.994;6.940;2024-03-22T05:39:30;46.30;;;27.75;;
66087;SDS011;52872;52.994;6.940;2024-03-22T05:41:56;44.00;;;23.45;;
66087;SDS011;52872;52.994;6.940;2024-03-22T05:44:22;47.92;;;30.45;;
66087;SDS011;52872;52.994;6.940;2024-03-22T05:46:48;44.08;;;23.40;;
66087;SDS011;52872;52.994;6.940;2024-03-22T05:49:15;45.70;;;31.60;;
66087;SDS011;52872;52.994;6.940;2024-03-22T05:51:41;41.50;;;23.60;;
66087;SDS011;52872;52.994;6.940;2024-03-22T05:54:07;39.38;;;26.65;;
66087;SDS011;52872;52.994;6.940;2024-03-22T05:56:33;48.70;;;29.90;;
66087;SDS011;52872;52.994;6.940;2024-03-22T05:58:59;35.35;;;23.25;;
66087;SDS011;52872;52.994;6.940;2024-03-22T06:01:25;47.72;;;26.15;;
66087;SDS011;52872;52.994;6.940;2024-03-22T06:03:51;39.00;;;20.92;;
66087;SDS011;52872;52.994;6.940;2024-03-22T06:06:17;47.85;;;30.85;;
66087;SDS011;52872;52.994;6.940;2024-03-22T06:08:44;41.65;;;25.42;;
66087;SDS011;52872;52.994;6.940;2024-03-22T06:11:10;39.70;;;22.40;;
66087;SDS011;52872;52.994;6.940;2024-03-22T06:13:37;38.78;;;21.50;;
66087;SDS011;52872;52.994;6.940;2024-03-22T06:16:03;34.88;;;20.98;;
66087;SDS011;52872;52.994;6.940;2024-03-22T06:18:29;43.00;;;26.35;;
66087;SDS011;52872;52.994;6.940;2024-03-22T06:20:55;39.45;;;22.33;;
66087;SDS011;52872;52.994;6.940;2024-03-22T06:23:22;36.40;;;21.52;;
66087;SDS011;52872;52.994;6.940;2024-03-22T06:25:51;40.90;;;24.63;;
66087;SDS011;52872;52.994;6.940;2024-03-22T06:28:18;37.83;;;25.83;;
66087;SDS011;52872;52.994;6.940;2024-03-22T06:30:44;39.35;;;22.67;;
66087;SDS011;52872;52.994;6.940;2024-03-22T06:33:10;37.95;;;23.15;;
66087;SDS011;52872;52.994;6.940;2024-03-22T06:35:36;51.22;;;27.17;;
66087;SDS011;52872;52.994;6.940;2024-03-22T06:38:02;38.30;;;21.75;;
66087;SDS011;52872;52.994;6.940;2024-03-22T06:40:28;51.50;;;25.98;;
66087;SDS011;52872;52.994;6.940;2024-03-22T06:42:54;44.20;;;22.90;;
66087;SDS011;52872;52.994;6.940;2024-03-22T06:45:20;41.53;;;25.67;;
66087;SDS011;52872;52.994;6.940;2024-03-22T06:47:47;42.03;;;25.40;;
66087;SDS011;52872;52.994;6.940;2024-03-22T06:50:13;37.13;;;24.08;;
66087;SDS011;52872;52.994;6.940;2024-03-22T06:52:39;41.35;;;26.08;;
66087;SDS011;52872;52.994;6.940;2024-03-22T06:55:05;31.42;;;21.30;;
66087;SDS011;52872;52.994;6.940;2024-03-22T06:57:31;37.33;;;27.00;;
66087;SDS011;52872;52.994;6.940;2024-03-22T06:59:59;31.13;;;22.65;;
66087;SDS011;52872;52.994;6.940;2024-03-22T07:02:25;48.97;;;27.05;;
66087;SDS011;52872;52.994;6.940;2024-03-22T07:04:52;44.70;;;31.63;;
66087;SDS011;52872;52.994;6.940;2024-03-22T07:07:18;30.05;;;16.25;;
66087;SDS011;52872;52.994;6.940;2024-03-22T07:09:44;37.60;;;21.30;;
66087;SDS011;52872;52.994;6.940;2024-03-22T07:12:11;32.35;;;21.63;;
66087;SDS011;52872;52.994;6.940;2024-03-22T07:14:37;29.95;;;19.83;;
66087;SDS011;52872;52.994;6.940;2024-03-22T07:17:03;33.85;;;23.33;;
66087;SDS011;52872;52.994;6.940;2024-03-22T07:19:30;23.70;;;14.13;;
66087;SDS011;52872;52.994;6.940;2024-03-22T07:21:57;34.63;;;21.25;;
66087;SDS011;52872;52.994;6.940;2024-03-22T07:24:25;33.03;;;21.17;;
66087;SDS011;52872;52.994;6.940;2024-03-22T07:26:51;41.20;;;22.58;;
66087;SDS011;52872;52.994;6.940;2024-03-22T07:29:17;38.70;;;20.75;;
66087;SDS011;52872;52.994;6.940;2024-03-22T07:31:43;33.30;;;20.48;;
66087;SDS011;52872;52.994;6.940;2024-03-22T07:34:09;28.98;;;18.92;;
66087;SDS011;52872;52.994;6.940;2024-03-22T07:36:39;27.77;;;18.60;;
66087;SDS011;52872;52.994;6.940;2024-03-22T07:39:05;35.40;;;27.38;;
66087;SDS011;52872;52.994;6.940;2024-03-22T07:41:35;29.25;;;17.15;;
66087;SDS011;52872;52.994;6.940;2024-03-22T07:44:01;27.75;;;17.25;;
66087;SDS011;52872;52.994;6.940;2024-03-22T07:46:28;25.13;;;14.70;;
66087;SDS011;52872;52.994;6.940;2024-03-22T07:48:54;30.08;;;16.55;;
66087;SDS011;52872;52.994;6.940;2024-03-22T07:51:20;40.60;;;17.00;;
66087;SDS011;52872;52.994;6.940;2024-03-22T07:53:46;32.35;;;17.67;;
66087;SDS011;52872;52.994;6.940;2024-03-22T07:56:12;27.90;;;20.70;;
66087;SDS011;52872;52.994;6.940;2024-03-22T07:58:39;23.83;;;19.92;;
66087;SDS011;52872;52.994;6.940;2024-03-22T08:01:05;23.75;;;14.27;;
66087;SDS011;52872;52.994;6.940;2024-03-22T08:03:31;27.58;;;20.52;;
66087;SDS011;52872;52.994;6.940;2024-03-22T08:05:57;28.95;;;17.73;;
66087;SDS011;52872;52.994;6.940;2024-03-22T08:08:23;21.75;;;10.93;;
66087;SDS011;52872;52.994;6.940;2024-03-22T08:10:49;22.85;;;18.08;;
66087;SDS011;52872;52.994;6.940;2024-03-22T08:13:15;24.17;;;16.75;;
66087;SDS011;52872;52.994;6.940;2024-03-22T08:15:41;32.28;;;23.38;;
66087;SDS011;52872;52.994;6.940;2024-03-22T08:18:09;27.40;;;17.75;;
66087;SDS011;52872;52.994;6.940;2024-03-22T08:20:35;17.98;;;12.10;;
66087;SDS011;52872;52.994;6.940;2024-03-22T08:23:02;18.20;;;14.65;;
66087;SDS011;52872;52.994;6.940;2024-03-22T08:25:28;22.98;;;16.70;;
66087;SDS011;52872;52.994;6.940;2024-03-22T08:27:55;19.15;;;14.65;;
66087;SDS011;52872;52.994;6.940;2024-03-22T08:30:22;21.70;;;17.05;;
66087;SDS011;52872;52.994;6.940;2024-03-22T08:32:48;18.63;;;10.73;;
66087;SDS011;52872;52.994;6.940;2024-03-22T08:35:14;19.13;;;10.40;;
66087;SDS011;52872;52.994;6.940;2024-03-22T08:37:41;19.65;;;11.23;;
66087;SDS011;52872;52.994;6.940;2024-03-22T08:40:07;26.10;;;16.58;;
66087;SDS011;52872;52.994;6.940;2024-03-22T08:42:33;24.40;;;13.77;;
66087;SDS011;52872;52.994;6.940;2024-03-22T08:44:59;29.45;;;17.85;;
66087;SDS011;52872;52.994;6.940;2024-03-22T08:47:25;20.30;;;15.32;;
66087;SDS011;52872;52.994;6.940;2024-03-22T08:49:51;17.40;;;12.95;;
66087;SDS011;52872;52.994;6.940;2024-03-22T08:52:17;22.67;;;13.43;;
66087;SDS011;52872;52.994;6.940;2024-03-22T08:54:43;25.35;;;14.30;;
66087;SDS011;52872;52.994;6.940;2024-03-22T08:57:09;16.40;;;9.48;;
66087;SDS011;52872;52.994;6.940;2024-03-22T08:59:35;16.90;;;14.18;;
66087;SDS011;52872;52.994;6.940;2024-03-22T09:02:03;16.48;;;9.68;;
66087;SDS011;52872;52.994;6.940;2024-03-22T09:04:29;18.63;;;12.60;;
66087;SDS011;52872;52.994;6.940;2024-03-22T09:06:55;14.45;;;9.48;;
66087;SDS011;52872;52.994;6.940;2024-03-22T09:09:21;11.55;;;8.00;;
66087;SDS011;52872;52.994;6.940;2024-03-22T09:11:47;18.50;;;14.25;;
66087;SDS011;52872;52.994;6.940;2024-03-22T09:14:13;16.17;;;12.00;;
66087;SDS011;52872;52.994;6.940;2024-03-22T09:16:39;19.75;;;13.77;;
66087;SDS011;52872;52.994;6.940;2024-03-22T09:19:06;19.55;;;10.90;;
66087;SDS011;52872;52.994;6.940;2024-03-22T09:21:32;16.33;;;11.35;;
66087;SDS011;52872;52.994;6.940;2024-03-22T09:23:57;20.92;;;16.25;;
66087;SDS011;52872;52.994;6.940;2024-03-22T09:26:23;17.48;;;9.63;;
66087;SDS011;52872;52.994;6.940;2024-03-22T09:28:49;18.25;;;11.70;;
66087;SDS011;52872;52.994;6.940;2024-03-22T09:31:16;18.48;;;11.02;;
66087;SDS011;52872;52.994;6.940;2024-03-22T09:33:42;10.32;;;8.68;;
66087;SDS011;52872;52.994;6.940;2024-03-22T09:36:08;18.10;;;12.02;;
66087;SDS011;52872;52.994;6.940;2024-03-22T09:38:34;18.98;;;10.35;;
66087;SDS011;52872;52.994;6.940;2024-03-22T09:41:00;9.65;;;7.57;;
66087;SDS011;52872;52.994;6.940;2024-03-22T09:43:27;15.25;;;13.18;;
66087;SDS011;52872;52.994;6.940;2024-03-22T09:45:54;9.07;;;7.15;;
66087;SDS011;52872;52.994;6.940;2024-03-22T09:48:21;15.07;;;9.27;;
66087;SDS011;52872;52.994;6.940;2024-03-22T09:50:48;12.98;;;7.22;;
66087;SDS011;52872;52.994;6.940;2024-03-22T09:53:19;13.65;;;8.38;;
66087;SDS011;52872;52.994;6.940;2024-03-22T09:55:47;11.88;;;7.80;;
66087;SDS011;52872;52.994;6.940;2024-03-22T09:58:15;14.23;;;8.25;;
66087;SDS011;52872;52.994;6.940;2024-03-22T10:00:44;11.30;;;8.25;;
66087;SDS011;52872;52.994;6.940;2024-03-22T10:03:10;8.90;;;5.68;;
66087;SDS011;52872;52.994;6.940;2024-03-22T10:05:36;16.90;;;8.98;;
66087;SDS011;52872;52.994;6.940;2024-03-22T10:08:03;7.18;;;5.75;;
66087;SDS011;52872;52.994;6.940;2024-03-22T10:10:31;8.82;;;6.82;;
66087;SDS011;52872;52.994;6.940;2024-03-22T10:13:00;13.55;;;7.68;;
66087;SDS011;52872;52.994;6.940;2024-03-22T10:15:26;8.25;;;7.13;;
66087;SDS011;52872;52.994;6.940;2024-03-22T10:17:53;6.30;;;4.88;;
66087;SDS011;52872;52.994;6.940;2024-03-22T10:20:21;10.10;;;6.13;;
66087;SDS011;52872;52.994;6.940;2024-03-22T10:22:57;13.52;;;8.20;;
66087;SDS011;52872;52.994;6.940;2024-03-22T10:25:27;6.63;;;5.10;;
66087;SDS011;52872;52.994;6.940;2024-03-22T10:27:54;4.75;;;3.65;;
66087;SDS011;52872;52.994;6.940;2024-03-22T10:30:21;9.80;;;7.00;;
66087;SDS011;52872;52.994;6.940;2024-03-22T10:32:49;10.05;;;5.40;;
66087;SDS011;52872;52.994;6.940;2024-03-22T10:35:16;7.90;;;5.75;;
66087;SDS011;52872;52.994;6.940;2024-03-22T10:37:43;9.90;;;6.53;;
66087;SDS011;52872;52.994;6.940;2024-03-22T10:40:10;10.18;;;5.93;;
66087;SDS011;52872;52.994;6.940;2024-03-22T10:42:37;9.32;;;6.90;;
66087;SDS011;52872;52.994;6.940;2024-03-22T10:45:08;8.02;;;7.30;;
66087;SDS011;52872;52.994;6.940;2024-03-22T10:47:35;5.53;;;3.83;;
66087;SDS011;52872;52.994;6.940;2024-03-22T10:50:06;5.72;;;3.58;;
66087;SDS011;52872;52.994;6.940;2024-03-22T10:52:38;6.05;;;4.03;;
66087;SDS011;52872;52.994;6.940;2024-03-22T10:55:16;8.55;;;5.72;;
66087;SDS011;52872;52.994;6.940;2024-03-22T10:57:50;8.48;;;5.80;;
66087;SDS011;52872;52.994;6.940;2024-03-22T11:00:16;5.25;;;4.75;;
66087;SDS011;52872;52.994;6.940;2024-03-22T11:02:53;5.32;;;4.35;;
66087;SDS011;52872;52.994;6.940;2024-03-22T11:05:20;6.68;;;5.90;;
66087;SDS011;52872;52.994;6.940;2024-03-22T11:07:46;7.57;;;5.10;;
66087;SDS011;52872;52.994;6.940;2024-03-22T11:10:12;6.00;;;5.13;;
66087;SDS011;52872;52.994;6.940;2024-03-22T11:12:41;7.57;;;5.97;;
66087;SDS011;52872;52.994;6.940;2024-03-22T11:15:10;6.47;;;4.05;;
66087;SDS011;52872;52.994;6.940;2024-03-22T11:17:37;4.22;;;3.47;;
66087;SDS011;52872;52.994;6.940;2024-03-22T11:20:03;7.25;;;5.40;;
66087;SDS011;52872;52.994;6.940;2024-03-22T11:22:31;4.72;;;3.35;;
66087;SDS011;52872;52.994;6.940;2024-03-22T11:24:57;5.90;;;4.47;;
66087;SDS011;52872;52.994;6.940;2024-03-22T11:27:23;5.90;;;3.60;;
66087;SDS011;52872;52.994;6.940;2024-03-22T11:29:49;6.15;;;3.65;;
66087;SDS011;52872;52.994;6.940;2024-03-22T11:32:17;7.03;;;3.40;;
66087;SDS011;52872;52.994;6.940;2024-03-22T11:34:43;4.82;;;3.20;;
66087;SDS011;52872;52.994;6.940;2024-03-22T11:37:09;6.63;;;3.42;;
66087;SDS011;52872;52.994;6.940;2024-03-22T11:39:36;4.32;;;3.65;;
66087;SDS011;52872;52.994;6.940;2024-03-22T11:42:03;5.30;;;4.47;;
66087;SDS011;52872;52.994;6.940;2024-03-22T11:44:31;4.45;;;2.42;;
66087;SDS011;52872;52.994;6.940;2024-03-22T11:46:59;6.55;;;3.60;;
66087;SDS011;52872;52.994;6.940;2024-03-22T11:49:25;2.92;;;2.33;;
66087;SDS011;52872;52.994;6.940;2024-03-22T11:51:52;5.40;;;3.30;;
66087;SDS011;52872;52.994;6.940;2024-03-22T11:54:21;6.47;;;3.90;;
66087;SDS011;52872;52.994;6.940;2024-03-22T11:56:47;5.30;;;3.53;;
66087;SDS011;52872;52.994;6.940;2024-03-22T11:59:13;3.25;;;2.70;;
66087;SDS011;52872;52.994;6.940;2024-03-22T12:01:42;3.85;;;3.33;;
66087;SDS011;52872;52.994;6.940;2024-03-22T12:04:08;3.92;;;2.53;;
66087;SDS011;52872;52.994;6.940;2024-03-22T12:06:44;3.95;;;3.30;;
66087;SDS011;52872;52.994;6.940;2024-03-22T12:09:13;2.88;;;2.13;;
66087;SDS011;52872;52.994;6.940;2024-03-22T12:11:39;3.22;;;2.55;;
66087;SDS011;52872;52.994;6.940;2024-03-22T12:14:06;2.42;;;2.20;;
66087;SDS011;52872;52.994;6.940;2024-03-22T12:16:32;2.60;;;1.92;;
66087;SDS011;52872;52.994;6.940;2024-03-22T12:18:58;4.35;;;2.63;;
66087;SDS011;52872;52.994;6.940;2024-03-22T12:21:24;3.15;;;2.80;;
66087;SDS011;52872;52.994;6.940;2024-03-22T12:23:50;4.30;;;2.30;;
66087;SDS011;52872;52.994;6.940;2024-03-22T12:26:16;2.90;;;2.60;;
66087;SDS011;52872;52.994;6.940;2024-03-22T12:28:43;2.25;;;1.75;;
66087;SDS011;52872;52.994;6.940;2024-03-22T12:31:09;3.95;;;2.92;;
66087;SDS011;52872;52.994;6.940;2024-03-22T12:33:38;2.53;;;2.15;;
66087;SDS011;52872;52.994;6.940;2024-03-22T12:36:04;2.38;;;1.80;;
66087;SDS011;52872;52.994;6.940;2024-03-22T12:38:30;2.90;;;2.13;;
66087;SDS011;52872;52.994;6.940;2024-03-22T12:40:56;1.95;;;1.58;;
66087;SDS011;52872;52.994;6.940;2024-03-22T12:43:23;4.40;;;2.45;;
66087;SDS011;52872;52.994;6.940;2024-03-22T12:45:48;2.33;;;1.58;;
66087;SDS011;52872;52.994;6.940;2024-03-22T12:48:15;4.82;;;2.00;;
66087;SDS011;52872;52.994;6.940;2024-03-22T12:50:41;2.20;;;1.83;;
66087;SDS011;52872;52.994;6.940;2024-03-22T12:53:07;1.85;;;1.50;;
66087;SDS011;52872;52.994;6.940;2024-03-22T12:55:33;2.92;;;1.45;;
66087;SDS011;52872;52.994;6.940;2024-03-22T12:57:59;3.35;;;1.85;;
66087;SDS011;52872;52.994;6.940;2024-03-22T13:00:25;3.55;;;2.33;;
66087;SDS011;52872;52.994;6.940;2024-03-22T13:02:51;3.25;;;2.13;;
66087;SDS011;52872;52.994;6.940;2024-03-22T13:05:17;3.38;;;1.92;;
66087;SDS011;52872;52.994;6.940;2024-03-22T13:07:43;3.88;;;2.17;;
66087;SDS011;52872;52.994;6.940;2024-03-22T13:10:09;3.65;;;2.78;;
66087;SDS011;52872;52.994;6.940;2024-03-22T13:12:35;3.05;;;1.65;;
66087;SDS011;52872;52.994;6.940;2024-03-22T13:15:02;2.45;;;2.13;;
66087;SDS011;52872;52.994;6.940;2024-03-22T13:17:28;3.38;;;2.25;;
66087;SDS011;52872;52.994;6.940;2024-03-22T13:19:54;3.72;;;1.77;;
66087;SDS011;52872;52.994;6.940;2024-03-22T13:22:20;4.68;;;2.53;;
66087;SDS011;52872;52.994;6.940;2024-03-22T13:24:47;4.55;;;2.97;;
66087;SDS011;52872;52.994;6.940;2024-03-22T13:27:16;7.78;;;3.22;;
66087;SDS011;52872;52.994;6.940;2024-03-22T13:29:42;6.25;;;3.00;;
66087;SDS011;52872;52.994;6.940;2024-03-22T13:32:08;2.53;;;2.33;;
66087;SDS011;52872;52.994;6.940;2024-03-22T13:34:35;6.93;;;2.80;;
66087;SDS011;52872;52.994;6.940;2024-03-22T13:37:04;5.25;;;3.15;;
66087;SDS011;52872;52.994;6.940;2024-03-22T13:39:31;4.03;;;2.35;;
66087;SDS011;52872;52.994;6.940;2024-03-22T13:41:57;8.35;;;3.38;;
66087;SDS011;52872;52.994;6.940;2024-03-22T13:44:24;3.25;;;2.88;;
66087;SDS011;52872;52.994;6.940;2024-03-22T13:46:50;3.65;;;2.83;;
66087;SDS011;52872;52.994;6.940;2024-03-22T13:49:17;4.18;;;2.25;;
66087;SDS011;52872;52.994;6.940;2024-03-22T13:51:46;4.07;;;3.78;;
66087;SDS011;52872;52.994;6.940;2024-03-22T13:54:13;3.67;;;1.92;;
66087;SDS011;52872;52.994;6.940;2024-03-22T13:56:39;4.65;;;3.08;;
66087;SDS011;52872;52.994;6.940;2024-03-22T13:59:06;6.82;;;2.80;;
66087;SDS011;52872;52.994;6.940;2024-03-22T14:01:35;4.30;;;3.08;;
66087;SDS011;52872;52.994;6.940;2024-03-22T14:04:02;5.43;;;3.33;;
66087;SDS011;52872;52.994;6.940;2024-03-22T14:06:30;9.95;;;3.00;;
66087;SDS011;52872;52.994;6.940;2024-03-22T14:08:56;4.53;;;2.50;;
66087;SDS011;52872;52.994;6.940;2024-03-22T14:11:27;6.50;;;2.78;;
66087;SDS011;52872;52.994;6.940;2024-03-22T14:13:53;8.48;;;3.72;;
66087;SDS011;52872;52.994;6.940;2024-03-22T14:16:19;7.43;;;3.67;;
66087;SDS011;52872;52.994;6.940;2024-03-22T14:18:45;5.13;;;2.78;;
66087;SDS011;52872;52.994;6.940;2024-03-22T14:21:11;9.45;;;3.67;;
66087;SDS011;52872;52.994;6.940;2024-03-22T14:23:39;3.67;;;2.92;;
66087;SDS011;52872;52.994;6.940;2024-03-22T14:26:05;6.30;;;2.67;;
66087;SDS011;52872;52.994;6.940;2024-03-22T14:28:31;4.57;;;1.92;;